Time;durP1;ratioP1;P1;durP2;ratioP2;P2;SDS_P1;SDS_P2;PMS_P1;PMS_P2;Temp;Humidity;BMP_temperature;BMP_pressure;BME280_temperature;BME280_humidity;BME280_pressure;Samples;Min_cycle;Max_cycle;Signal;HPM_P1;HPM_P2
2021/11/05 00:00:39;;;;;;;43.83;27.93;;;;;;;22.32;100.00;101340.09;1725871;82;20988;-66
2021/11/05 00:03:07;;;;;;;42.53;26.07;;;;;;;22.59;100.00;101329.20;1724401;82;22344;-62
2021/11/05 00:05:35;;;;;;;43.87;26.40;;;;;;;22.16;100.00;101327.51;1726825;82;20910;-62
2021/11/05 00:08:04;;;;;;;43.63;25.77;;;;;;;22.32;100.00;101326.28;1724210;82;21040;-62
2021/11/05 00:10:31;;;;;;;39.10;24.10;;;;;;;22.34;100.00;101328.69;1725793;82;21143;-65
2021/11/05 00:12:58;;;;;;;46.47;27.23;;;;;;;22.30;100.00;101331.53;1723621;82;21195;-63
2021/11/05 00:15:25;;;;;;;41.63;24.50;;;;;;;22.27;100.00;101318.19;1726762;82;21051;-64
2021/11/05 00:17:51;;;;;;;43.23;25.67;;;;;;;22.32;100.00;101324.14;1725088;81;21070;-64
2021/11/05 00:20:18;;;;;;;40.03;23.77;;;;;;;22.19;100.00;101324.39;1697074;84;21104;-65
2021/11/05 00:22:45;;;;;;;44.20;26.90;;;;;;;22.16;100.00;101327.51;1724299;82;21151;-67
2021/11/05 00:25:11;;;;;;;40.87;24.33;;;;;;;22.38;100.00;101321.86;1724410;82;21455;-65
2021/11/05 00:27:39;;;;;;;39.47;23.50;;;;;;;22.51;100.00;101319.47;1726863;82;21029;-64
2021/11/05 00:30:10;;;;;;;47.40;26.80;;;;;;;22.78;100.00;101318.37;1729923;82;21007;-65
2021/11/05 00:32:38;;;;;;;45.63;26.37;;;;;;;22.47;100.00;101315.15;1732283;82;21544;-66
2021/11/05 00:35:05;;;;;;;43.40;25.83;;;;;;;22.37;100.00;101314.94;1732583;82;21282;-63
2021/11/05 00:37:32;;;;;;;44.33;26.57;;;;;;;22.49;100.00;101317.03;1732800;82;20995;-63
2021/11/05 00:39:59;;;;;;;45.23;26.77;;;;;;;22.28;100.00;101318.50;1732858;82;21106;-63
2021/11/05 00:42:25;;;;;;;49.90;27.63;;;;;;;22.10;100.00;101320.74;1732534;82;20868;-65
2021/11/05 00:44:52;;;;;;;48.00;27.20;;;;;;;22.19;100.00;101313.24;1732131;82;21222;-64
2021/11/05 00:47:19;;;;;;;49.93;27.50;;;;;;;22.49;100.00;101318.36;1732801;82;22770;-64
2021/11/05 00:49:46;;;;;;;45.60;26.30;;;;;;;22.68;100.00;101318.18;1732774;82;21028;-63
2021/11/05 00:52:12;;;;;;;46.03;26.90;;;;;;;22.55;100.00;101316.09;1732986;82;20919;-63
2021/11/05 00:54:41;;;;;;;55.07;29.43;;;;;;;22.64;100.00;101323.69;1732220;82;20979;-66
2021/11/05 00:57:07;;;;;;;50.27;27.80;;;;;;;22.69;100.00;101326.44;1702523;82;22524;-63
2021/11/05 00:59:34;;;;;;;51.97;27.77;;;;;;;23.01;100.00;101323.61;1702060;82;21481;-65
2021/11/05 01:02:00;;;;;;;49.83;28.60;;;;;;;23.14;100.00;101317.69;1732829;81;20991;-63
2021/11/05 01:04:27;;;;;;;47.80;27.20;;;;;;;23.34;100.00;101314.58;1735704;81;21516;-64
2021/11/05 01:06:54;;;;;;;54.73;29.30;;;;;;;23.12;100.00;101314.48;1777659;79;21052;-67
2021/11/05 01:09:23;;;;;;;52.37;29.70;;;;;;;23.29;100.00;101308.09;1777767;79;21020;-62
2021/11/05 01:11:49;;;;;;;45.33;25.97;;;;;;;23.43;100.00;101306.45;1777716;79;21134;-63
2021/11/05 01:14:17;;;;;;;52.07;27.70;;;;;;;23.39;100.00;101310.66;1777655;79;21593;-63
2021/11/05 01:16:44;;;;;;;52.97;28.93;;;;;;;23.27;100.00;101303.56;1777243;79;20945;-63
2021/11/05 01:19:10;;;;;;;47.97;29.47;;;;;;;23.37;100.00;101306.89;1777473;79;21038;-66
2021/11/05 01:21:37;;;;;;;46.53;26.97;;;;;;;23.47;100.00;101307.58;1777927;79;20976;-64
2021/11/05 01:24:05;;;;;;;46.53;28.40;;;;;;;23.48;100.00;101307.86;1777513;79;21151;-64
2021/11/05 01:26:31;;;;;;;48.27;27.07;;;;;;;23.73;97.43;101311.45;1777089;79;21465;-65
2021/11/05 01:28:58;;;;;;;48.40;26.87;;;;;;;23.71;97.26;101309.02;1777468;79;21651;-63
2021/11/05 01:31:24;;;;;;;49.07;28.23;;;;;;;23.81;95.75;101317.69;1777799;79;20988;-65
2021/11/05 01:33:52;;;;;;;52.07;29.33;;;;;;;23.86;94.13;101312.42;1777887;79;21053;-64
2021/11/05 01:36:18;;;;;;;47.27;26.57;;;;;;;24.11;90.29;101309.83;1778122;80;21148;-63
2021/11/05 01:38:45;;;;;;;47.80;27.17;;;;;;;23.93;91.90;101310.39;1777155;79;21091;-64
2021/11/05 01:41:12;;;;;;;47.10;27.90;;;;;;;24.23;89.83;101305.17;1777973;79;22135;-63
2021/11/05 01:43:38;;;;;;;47.47;28.30;;;;;;;24.27;87.56;101316.41;1777257;79;20984;-65
2021/11/05 01:46:08;;;;;;;46.10;26.40;;;;;;;24.11;89.95;101313.30;1777582;79;21158;-63
2021/11/05 01:48:36;;;;;;;53.10;29.30;;;;;;;24.33;87.48;101314.63;1777856;79;21109;-65
2021/11/05 01:51:03;;;;;;;44.03;26.87;;;;;;;24.25;86.15;101312.41;1777674;79;21042;-64
2021/11/05 01:53:30;;;;;;;45.33;27.33;;;;;;;24.34;85.36;101310.91;1777875;79;21043;-65
2021/11/05 01:55:57;;;;;;;50.57;28.17;;;;;;;24.30;85.12;101312.46;1777706;79;21003;-62
2021/11/05 01:58:25;;;;;;;46.73;27.10;;;;;;;24.13;87.79;101317.03;1778591;79;20949;-63
2021/11/05 02:00:52;;;;;;;47.20;27.53;;;;;;;24.62;82.06;101323.77;1779817;79;21137;-65
2021/11/05 02:03:18;;;;;;;48.67;28.17;;;;;;;24.26;80.92;101320.67;1774299;79;21286;-63
2021/11/05 02:05:46;;;;;;;52.83;28.57;;;;;;;24.73;79.25;101314.28;1777340;79;21011;-63
2021/11/05 02:08:13;;;;;;;49.13;28.23;;;;;;;24.90;77.45;101316.86;1778134;79;21152;-63
2021/11/05 02:10:40;;;;;;;50.30;29.07;;;;;;;24.84;76.49;101323.19;1778247;79;20979;-64
2021/11/05 02:13:07;;;;;;;47.70;28.37;;;;;;;24.68;78.58;101328.10;1777228;79;21137;-63
2021/11/05 02:15:33;;;;;;;46.63;29.37;;;;;;;24.75;77.60;101323.38;1777518;79;21559;-65
2021/11/05 02:18:00;;;;;;;53.17;29.90;;;;;;;24.31;81.98;101322.05;1777713;79;21580;-62
2021/11/05 02:20:27;;;;;;;50.17;29.53;;;;;;;24.13;84.47;101326.36;1778083;79;21020;-62
2021/11/05 02:22:54;;;;;;;50.97;29.40;;;;;;;24.15;85.63;101325.59;1777321;80;20987;-63
2021/11/05 02:25:21;;;;;;;52.53;29.40;;;;;;;24.04;87.61;101324.13;1778002;79;22119;-62
2021/11/05 02:27:49;;;;;;;52.67;29.00;;;;;;;24.36;82.85;101314.14;1773854;79;21007;-62
2021/11/05 02:30:18;;;;;;;48.43;26.77;;;;;;;24.40;81.79;101313.95;1778049;79;21011;-62
2021/11/05 02:32:45;;;;;;;48.90;27.20;;;;;;;24.38;81.86;101323.20;1777014;79;20999;-63
2021/11/05 02:35:13;;;;;;;47.80;27.10;;;;;;;24.40;81.02;101327.28;1777920;79;21090;-64
2021/11/05 02:37:40;;;;;;;49.30;26.73;;;;;;;24.33;81.69;101337.28;1778020;79;21126;-65
2021/11/05 02:40:08;;;;;;;45.93;26.10;;;;;;;24.37;80.33;101342.92;1777216;79;21008;-64
2021/11/05 02:42:36;;;;;;;52.37;28.53;;;;;;;23.98;84.13;101342.44;1777396;79;21020;-67
2021/11/05 02:45:07;;;;;;;51.10;27.83;;;;;;;23.80;88.28;101340.05;1777817;79;21574;-62
2021/11/05 02:47:33;;;;;;;56.90;29.35;;;;;;;23.71;89.91;101342.83;1777840;79;27176;-65
2021/11/05 02:50:09;;;;;;;49.07;28.57;;;;;;;23.83;88.67;101336.91;1777464;79;21141;-63
2021/11/05 02:52:35;;;;;;;49.73;28.37;;;;;;;23.90;88.53;101340.17;1776928;79;21067;-64
2021/11/05 02:55:03;;;;;;;53.63;28.97;;;;;;;23.91;88.67;101343.14;1777667;79;21592;-63
2021/11/05 02:57:30;;;;;;;55.77;28.70;;;;;;;23.75;89.88;101340.79;1777517;79;20980;-66
2021/11/05 02:59:57;;;;;;;51.23;28.80;;;;;;;23.73;89.80;101341.55;1769898;79;21549;-64
2021/11/05 03:02:25;;;;;;;52.77;30.50;;;;;;;23.62;90.92;101341.61;1772669;79;21095;-63
2021/11/05 03:04:54;;;;;;;49.77;27.27;;;;;;;23.49;93.10;101332.91;1762265;79;21642;-64
2021/11/05 03:07:20;;;;;;;47.37;26.83;;;;;;;23.67;91.23;101339.05;1711154;81;21007;-64
2021/11/05 03:09:49;;;;;;;48.33;26.23;;;;;;;23.74;90.90;101342.34;1713029;81;21971;-64
2021/11/05 03:12:15;;;;;;;46.83;25.97;;;;;;;23.67;91.60;101339.05;1689639;82;21061;-62
2021/11/05 03:14:42;;;;;;;46.43;26.97;;;;;;;23.70;90.42;101339.36;1687121;82;21132;-62
2021/11/05 03:17:09;;;;;;;44.80;25.93;;;;;;;23.76;90.35;101340.26;1688320;82;21066;-62
2021/11/05 03:19:36;;;;;;;42.13;24.17;;;;;;;23.81;89.32;101332.34;1716480;81;20988;-66
2021/11/05 03:22:05;;;;;;;47.07;25.20;;;;;;;23.70;89.83;101334.57;1711807;81;21037;-63
2021/11/05 03:24:32;;;;;;;40.97;24.47;;;;;;;23.80;89.07;101334.73;1716487;81;21484;-62
2021/11/05 03:26:58;;;;;;;43.77;25.17;;;;;;;23.97;86.64;101336.01;1711876;81;21134;-62
2021/11/05 03:29:24;;;;;;;40.07;23.53;;;;;;;24.06;84.41;101323.09;1721073;81;20965;-65
2021/11/05 03:31:52;;;;;;;41.07;21.67;;;;;;;23.50;91.81;101323.88;1714198;81;20990;-64
2021/11/05 03:34:19;;;;;;;41.13;24.77;;;;;;;22.71;100.00;101321.17;1713729;81;21022;-66
2021/11/05 03:36:46;;;;;;;39.50;24.57;;;;;;;22.79;100.00;101325.30;1717750;81;21156;-64
2021/11/05 03:39:12;;;;;;;39.27;23.40;;;;;;;23.13;98.37;101319.55;1689050;82;21864;-64
2021/11/05 03:41:39;;;;;;;40.73;23.57;;;;;;;23.27;97.29;101324.84;1716635;81;21074;-66
2021/11/05 03:44:06;;;;;;;38.30;23.37;;;;;;;23.29;96.37;101314.75;1719014;81;21098;-66
2021/11/05 03:46:34;;;;;;;35.77;20.97;;;;;;;23.51;93.37;101317.49;1718886;81;21018;-64
2021/11/05 03:49:03;;;;;;;41.27;23.40;;;;;;;23.87;88.29;101319.38;1719322;81;21090;-63
2021/11/05 03:51:30;;;;;;;34.53;22.17;;;;;;;23.86;86.02;101311.63;1714205;81;21792;-66
2021/11/05 03:53:56;;;;;;;31.83;21.03;;;;;;;24.01;84.48;101316.62;1716284;81;20951;-64
2021/11/05 03:56:24;;;;;;;37.30;21.93;;;;;;;24.00;83.40;101325.67;1716194;81;21080;-67
2021/11/05 03:58:51;;;;;;;34.57;20.27;;;;;;;24.01;83.13;101317.15;1714918;81;21145;-64
2021/11/05 04:01:19;;;;;;;34.27;20.47;;;;;;;24.02;83.08;101314.26;1671250;82;21075;-64
2021/11/05 04:03:48;;;;;;;35.00;20.87;;;;;;;23.37;90.75;101310.88;1660166;84;21135;-64
2021/11/05 04:06:19;;;;;;;34.97;20.57;;;;;;;23.45;89.52;101306.50;1632302;85;21516;-63
2021/11/05 04:08:46;;;;;;;31.50;20.82;;;;;;;23.45;89.31;101313.16;1660603;84;21035;-64
2021/11/05 04:11:13;;;;;;;30.57;19.27;;;;;;;23.40;90.53;101310.40;1661221;84;21940;-63
2021/11/05 04:13:40;;;;;;;30.30;19.37;;;;;;;23.29;91.86;101307.30;1661110;84;21071;-65
2021/11/05 04:16:07;;;;;;;31.37;19.93;;;;;;;23.38;91.36;101315.17;1658508;84;22095;-65
2021/11/05 04:18:35;;;;;;;34.87;20.50;;;;;;;23.11;94.20;101308.36;1660101;84;21091;-64
2021/11/05 04:21:02;;;;;;;30.83;19.33;;;;;;;23.05;94.78;101302.66;1661267;84;21101;-63
2021/11/05 04:23:30;;;;;;;30.00;18.33;;;;;;;23.09;94.75;101310.97;1660964;84;20952;-63
2021/11/05 04:25:56;;;;;;;31.77;20.47;;;;;;;23.24;94.35;101312.02;1660977;84;20927;-65
2021/11/05 04:28:23;;;;;;;34.47;24.67;;;;;;;23.23;93.87;101309.61;1663215;84;21165;-65
2021/11/05 04:30:50;;;;;;;29.73;20.67;;;;;;;23.29;92.40;101305.97;1660679;84;21110;-63
2021/11/05 04:33:16;;;;;;;32.97;22.00;;;;;;;22.71;100.00;101307.08;1667095;84;21010;-64
2021/11/05 04:35:43;;;;;;;31.70;19.60;;;;;;;22.59;100.00;101301.30;1660614;84;20956;-63
2021/11/05 04:38:10;;;;;;;26.27;17.53;;;;;;;22.68;100.00;101303.04;1660287;84;21038;-64
2021/11/05 04:40:38;;;;;;;26.10;17.30;;;;;;;22.70;100.00;101300.16;1660223;84;22057;-64
2021/11/05 04:43:04;;;;;;;32.13;20.27;;;;;;;22.60;100.00;101300.77;1662366;84;21114;-63
2021/11/05 04:45:31;;;;;;;30.37;20.93;;;;;;;22.63;100.00;101302.16;1660301;84;21078;-63
2021/11/05 04:47:58;;;;;;;33.47;20.17;;;;;;;22.64;100.00;101306.41;1660810;84;21114;-63
2021/11/05 04:50:24;;;;;;;29.87;19.30;;;;;;;22.85;100.00;101308.41;1660581;84;21576;-66
2021/11/05 04:52:51;;;;;;;33.10;20.77;;;;;;;23.21;98.07;101317.02;1660405;84;21154;-66
2021/11/05 04:55:19;;;;;;;28.90;19.33;;;;;;;23.39;94.86;101314.12;1660547;84;21125;-66
2021/11/05 04:57:47;;;;;;;30.10;19.50;;;;;;;23.42;93.91;101306.98;1660204;84;21043;-65
2021/11/05 05:00:15;;;;;;;30.57;19.60;;;;;;;23.47;92.69;101308.91;1659261;84;21011;-66
2021/11/05 05:02:42;;;;;;;32.30;20.20;;;;;;;23.33;93.57;101307.09;1659526;84;21083;-65
2021/11/05 05:05:08;;;;;;;28.10;19.03;;;;;;;23.47;92.74;101311.05;1660171;86;21579;-64
2021/11/05 05:07:35;;;;;;;30.23;18.60;;;;;;;23.66;91.45;101317.44;1661430;86;20959;-65
2021/11/05 05:10:02;;;;;;;31.30;19.37;;;;;;;24.03;86.15;101315.86;1660882;86;21039;-64
2021/11/05 05:12:29;;;;;;;34.40;19.50;;;;;;;23.88;86.49;101316.99;1661226;86;20976;-65
2021/11/05 05:14:55;;;;;;;26.87;18.33;;;;;;;24.10;84.18;101316.22;1660742;86;21189;-63
2021/11/05 05:17:22;;;;;;;30.07;19.63;;;;;;;24.04;84.98;101320.66;1661610;86;21883;-63
2021/11/05 05:19:49;;;;;;;29.57;19.07;;;;;;;24.03;83.79;101322.52;1661265;86;20952;-61
2021/11/05 05:22:15;;;;;;;28.60;18.57;;;;;;;24.14;82.81;101330.12;1661585;86;21137;-65
2021/11/05 05:24:41;;;;;;;33.77;20.47;;;;;;;23.91;85.31;101329.02;1660954;84;21039;-66
2021/11/05 05:27:08;;;;;;;29.50;20.43;;;;;;;23.72;87.34;101325.83;1660727;84;21506;-64
2021/11/05 05:29:35;;;;;;;32.73;19.70;;;;;;;23.96;86.12;101324.55;1660560;86;21982;-64
2021/11/05 05:32:02;;;;;;;33.57;20.90;;;;;;;24.04;85.84;101319.33;1661710;86;21010;-65
2021/11/05 05:34:28;;;;;;;36.37;21.97;;;;;;;24.19;83.61;101321.38;1661472;86;20983;-65
2021/11/05 05:36:55;;;;;;;33.73;21.27;;;;;;;24.20;83.16;101325.65;1660827;86;20924;-66
2021/11/05 05:39:23;;;;;;;31.10;19.33;;;;;;;24.45;81.32;101320.66;1658760;86;21110;-64
2021/11/05 05:41:49;;;;;;;32.00;21.13;;;;;;;24.68;76.85;101330.23;1661844;86;21140;-65
2021/11/05 05:44:16;;;;;;;29.97;19.70;;;;;;;25.05;73.51;101326.86;1661688;86;20976;-64
2021/11/05 05:46:42;;;;;;;34.33;19.93;;;;;;;25.17;69.62;101322.72;1661825;86;21544;-67
2021/11/05 05:49:08;;;;;;;32.93;17.97;;;;;;;25.28;67.92;101320.41;1660520;86;21035;-64
2021/11/05 05:51:35;;;;;;;30.97;18.73;;;;;;;25.05;69.31;101325.53;1661714;86;20975;-64
2021/11/05 05:54:02;;;;;;;27.23;16.63;;;;;;;25.24;68.36;101329.45;1661693;86;21143;-63
2021/11/05 05:56:29;;;;;;;27.63;16.67;;;;;;;25.43;66.16;101335.20;1661355;86;20988;-65
2021/11/05 05:58:56;;;;;;;26.40;17.33;;;;;;;25.70;64.04;101328.98;1660005;86;21419;-71
2021/11/05 06:01:23;;;;;;;27.30;19.13;;;;;;;25.75;63.92;101332.20;1661371;84;21211;-63
2021/11/05 06:03:50;;;;;;;29.87;19.67;;;;;;;25.23;66.21;101333.19;1661186;84;21075;-63
2021/11/05 06:06:16;;;;;;;27.43;18.13;;;;;;;25.37;65.96;101336.22;1661209;84;21199;-63
2021/11/05 06:08:44;;;;;;;26.07;16.90;;;;;;;25.38;66.09;101335.18;1661226;84;21019;-70
2021/11/05 06:11:11;;;;;;;27.10;17.77;;;;;;;25.40;66.14;101331.70;1660617;84;21085;-64
2021/11/05 06:13:39;;;;;;;27.30;17.93;;;;;;;25.56;65.12;101333.15;1661232;84;21008;-62
2021/11/05 06:16:07;;;;;;;27.57;18.37;;;;;;;25.39;66.13;101326.10;1661068;84;20944;-62
2021/11/05 06:18:34;;;;;;;25.33;17.43;;;;;;;25.25;67.81;101326.25;1666521;84;21334;-63
2021/11/05 06:21:01;;;;;;;26.37;18.77;;;;;;;25.48;66.93;101323.75;1661576;84;21065;-63
2021/11/05 06:23:27;;;;;;;29.43;19.77;;;;;;;25.00;72.52;101330.30;1661295;84;21121;-63
2021/11/05 06:25:56;;;;;;;27.57;18.77;;;;;;;24.96;73.53;101333.20;1661041;84;20972;-63
2021/11/05 06:28:23;;;;;;;26.37;17.00;;;;;;;24.92;75.39;101329.40;1661325;84;21050;-63
2021/11/05 06:30:50;;;;;;;27.27;17.03;;;;;;;25.08;73.13;101340.20;1661303;84;21814;-69
2021/11/05 06:33:18;;;;;;;27.20;17.50;;;;;;;24.91;74.36;101336.33;1662540;84;21101;-65
2021/11/05 06:35:46;;;;;;;27.03;17.93;;;;;;;24.85;75.56;101340.82;1666046;84;21046;-64
2021/11/05 06:38:13;;;;;;;25.53;17.20;;;;;;;24.89;75.49;101337.09;1661113;84;20967;-65
2021/11/05 06:40:41;;;;;;;22.23;15.77;;;;;;;24.95;74.23;101338.23;1661460;84;21529;-70
2021/11/05 06:43:08;;;;;;;22.20;16.70;;;;;;;24.71;75.56;101346.27;1660134;84;21137;-63
2021/11/05 06:45:36;;;;;;;23.57;16.90;;;;;;;24.37;80.19;101342.92;1661088;84;21568;-64
2021/11/05 06:48:04;;;;;;;22.70;17.20;;;;;;;24.42;81.43;101339.01;1661069;84;21270;-64
2021/11/05 06:50:30;;;;;;;21.67;16.50;;;;;;;24.38;81.44;101342.66;1665397;84;21122;-64
2021/11/05 06:52:57;;;;;;;22.17;17.00;;;;;;;24.54;80.56;101339.67;1662637;84;20978;-70
2021/11/05 06:55:23;;;;;;;21.23;15.63;;;;;;;24.79;77.98;101335.69;1661585;84;21121;-64
2021/11/05 06:57:50;;;;;;;21.27;15.77;;;;;;;24.54;80.84;101331.67;1661071;84;21064;-65
2021/11/05 07:00:17;;;;;;;19.60;14.60;;;;;;;24.74;78.61;101331.11;1661130;84;21044;-65
2021/11/05 07:02:43;;;;;;;23.53;15.80;;;;;;;24.91;76.45;101333.13;1660809;84;21023;-68
2021/11/05 07:05:12;;;;;;;22.80;16.00;;;;;;;24.88;76.66;101330.96;1660095;84;21063;-64
2021/11/05 07:07:39;;;;;;;23.90;16.53;;;;;;;24.82;75.40;101330.66;1661119;84;21157;-63
2021/11/05 07:10:06;;;;;;;21.07;15.23;;;;;;;23.05;95.22;101335.91;1664033;84;21088;-64
2021/11/05 07:12:32;;;;;;;23.13;16.53;;;;;;;22.06;100.00;101339.52;1661065;84;21039;-63
2021/11/05 07:15:00;;;;;;;25.70;17.07;;;;;;;21.89;100.00;101339.91;1659722;84;22570;-69
2021/11/05 07:17:28;;;;;;;22.47;16.40;;;;;;;21.79;100.00;101342.36;1661376;84;21378;-66
2021/11/05 07:19:55;;;;;;;22.87;15.93;;;;;;;22.06;100.00;101345.34;1661494;84;21107;-65
2021/11/05 07:22:21;;;;;;;29.53;17.57;;;;;;;22.10;100.00;101340.66;1660061;84;21090;-64
2021/11/05 07:24:48;;;;;;;22.67;17.20;;;;;;;22.20;100.00;101341.93;1660174;84;21093;-65
2021/11/05 07:27:15;;;;;;;20.93;16.87;;;;;;;22.24;100.00;101339.13;1659355;84;21073;-70
2021/11/05 07:29:43;;;;;;;23.63;18.23;;;;;;;22.03;100.00;101333.33;1668468;84;21467;-66
2021/11/05 07:32:10;;;;;;;23.53;18.07;;;;;;;22.01;100.00;101338.09;1668541;84;21168;-66
2021/11/05 07:34:38;;;;;;;23.07;18.10;;;;;;;21.95;100.00;101332.89;1659996;84;20983;-63
2021/11/05 07:37:14;;;;;;;21.60;16.73;;;;;;;22.10;100.00;101338.53;1665493;84;21051;-64
2021/11/05 07:39:37;;;;;;;24.03;18.13;;;;;;;22.30;100.00;101336.84;1663720;84;21097;-67
2021/11/05 07:42:04;;;;;;;25.97;19.20;;;;;;;22.18;100.00;101341.38;1634591;85;21193;-66
2021/11/05 07:44:31;;;;;;;26.47;18.47;;;;;;;21.69;100.00;101335.48;1661092;84;21147;-65
2021/11/05 07:46:57;;;;;;;23.80;16.83;;;;;;;21.68;100.00;101335.20;1660838;84;21114;-67
2021/11/05 07:49:24;;;;;;;20.60;16.70;;;;;;;21.78;100.00;101332.27;1664099;84;20987;-70
2021/11/05 07:51:55;;;;;;;22.50;17.53;;;;;;;21.92;100.00;101331.49;1669933;84;21061;-69
2021/11/05 07:54:20;;;;;;;25.47;18.87;;;;;;;22.41;100.00;101332.55;1665795;84;21545;-67
2021/11/05 07:56:49;;;;;;;24.27;19.50;;;;;;;22.81;100.00;101333.33;1660792;84;20959;-66
2021/11/05 07:59:15;;;;;;;20.63;17.93;;;;;;;22.69;100.00;101332.58;1660658;84;21066;-67
2021/11/05 08:01:42;;;;;;;24.57;16.50;;;;;;;22.96;100.00;101338.16;1631358;85;21557;-66
2021/11/05 08:04:08;;;;;;;20.20;16.37;;;;;;;23.29;100.00;101335.23;1660669;84;21133;-67
2021/11/05 08:06:35;;;;;;;24.27;19.00;;;;;;;23.53;100.00;101338.55;1632520;85;21003;-68
2021/11/05 08:09:02;;;;;;;24.67;18.50;;;;;;;23.65;99.99;101338.47;1660256;84;21164;-64
2021/11/05 08:11:29;;;;;;;21.63;17.40;;;;;;;23.77;97.73;101341.86;1660546;84;21089;-66
2021/11/05 08:13:57;;;;;;;22.83;18.07;;;;;;;23.71;97.48;101341.50;1626293;86;21113;-67
2021/11/05 08:16:24;;;;;;;26.10;19.07;;;;;;;22.43;100.00;101341.91;1660128;84;22532;-67
2021/11/05 08:18:51;;;;;;;22.33;18.00;;;;;;;22.18;100.00;101345.36;1631288;85;21127;-65
2021/11/05 08:21:19;;;;;;;24.13;19.00;;;;;;;22.35;100.00;101343.61;1631752;85;21145;-66
2021/11/05 08:23:45;;;;;;;24.07;18.93;;;;;;;22.79;100.00;101342.58;1656686;84;21048;-66
2021/11/05 08:26:12;;;;;;;26.37;18.33;;;;;;;22.95;100.00;101340.50;1635043;85;21166;-69
2021/11/05 08:28:41;;;;;;;22.13;18.77;;;;;;;23.76;97.98;101340.26;1667641;84;20971;-67
2021/11/05 08:31:12;;;;;;;24.17;18.10;;;;;;;23.92;92.25;101335.42;1693741;82;21512;-66
2021/11/05 08:33:40;;;;;;;23.27;18.67;;;;;;;24.07;88.62;101344.14;1654422;84;21157;-70
2021/11/05 08:36:08;;;;;;;24.00;16.37;;;;;;;23.26;91.79;101346.34;1654963;84;21098;-67
2021/11/05 08:38:35;;;;;;;22.20;16.67;;;;;;;22.99;96.03;101348.28;1626548;85;20976;-67
2021/11/05 08:41:01;;;;;;;25.03;18.17;;;;;;;22.64;100.00;101348.94;1649870;84;21043;-68
2021/11/05 08:43:31;;;;;;;27.13;19.73;;;;;;;22.93;99.37;101343.94;1633555;85;21091;-70
2021/11/05 08:46:00;;;;;;;22.70;16.77;;;;;;;23.20;96.03;101344.67;1626604;86;22475;-69
2021/11/05 08:48:28;;;;;;;24.47;18.60;;;;;;;23.25;95.62;101344.74;1654818;84;21102;-68
2021/11/05 08:50:57;;;;;;;27.83;17.93;;;;;;;22.61;100.00;101342.77;1638830;85;21142;-67
2021/11/05 08:53:24;;;;;;;28.90;17.93;;;;;;;22.96;100.00;101341.34;1632485;85;21035;-72
2021/11/05 08:55:50;;;;;;;27.93;17.07;;;;;;;23.52;92.43;101344.91;1628970;85;21652;-70
2021/11/05 08:58:17;;;;;;;24.97;17.40;;;;;;;22.84;95.97;101350.64;1660617;84;21106;-65
2021/11/05 09:00:44;;;;;;;26.17;18.73;;;;;;;22.50;100.00;101344.41;1632119;85;21648;-68
2021/11/05 09:03:10;;;;;;;27.03;17.53;;;;;;;22.14;100.00;101339.70;1660426;84;21082;-66
2021/11/05 09:05:37;;;;;;;25.37;18.30;;;;;;;21.92;100.00;101342.64;1640165;85;21130;-68
2021/11/05 09:08:05;;;;;;;26.37;19.77;;;;;;;21.99;100.00;101343.33;1662690;84;21577;-67
2021/11/05 09:10:33;;;;;;;24.60;17.00;;;;;;;21.97;100.00;101336.94;1665189;84;21028;-66
2021/11/05 09:13:00;;;;;;;25.23;18.23;;;;;;;22.25;100.00;101336.75;1656376;84;21003;-67
2021/11/05 09:15:27;;;;;;;23.67;16.07;;;;;;;22.31;100.00;101335.30;1665252;84;21024;-66
2021/11/05 09:17:55;;;;;;;26.50;17.70;;;;;;;22.67;100.00;101337.84;1700701;82;21070;-67
2021/11/05 09:20:22;;;;;;;26.17;18.00;;;;;;;22.38;100.00;101331.16;1691840;82;21038;-71
2021/11/05 09:22:48;;;;;;;23.57;17.47;;;;;;;22.32;100.00;101330.79;1691810;82;21085;-69
2021/11/05 09:25:16;;;;;;;27.73;17.23;;;;;;;21.92;100.00;101323.53;1660734;84;21026;-67
2021/11/05 09:27:44;;;;;;;24.70;17.17;;;;;;;22.21;100.00;101331.62;1660060;84;21066;-67
2021/11/05 09:30:11;;;;;;;23.33;16.87;;;;;;;22.35;100.00;101334.31;1637038;85;21133;-66
2021/11/05 09:32:37;;;;;;;27.30;17.83;;;;;;;22.33;100.00;101325.75;1657742;84;21138;-71
2021/11/05 09:35:06;;;;;;;31.77;19.13;;;;;;;22.49;100.00;101326.33;1659739;85;22424;-67
2021/11/05 09:37:35;;;;;;;26.63;17.77;;;;;;;22.77;100.00;101326.08;1657808;86;21022;-67
2021/11/05 09:40:04;;;;;;;25.07;16.23;;;;;;;22.93;100.00;101326.66;1642362;86;21117;-64
2021/11/05 09:42:32;;;;;;;29.40;19.27;;;;;;;23.09;97.76;101326.92;1709203;82;21551;-72
2021/11/05 09:44:59;;;;;;;26.00;17.60;;;;;;;23.09;96.57;101326.39;1704736;82;21025;-64
2021/11/05 09:47:27;;;;;;;20.87;15.93;;;;;;;22.98;97.71;101325.94;1697331;82;21484;-65
2021/11/05 09:49:54;;;;;;;28.03;17.13;;;;;;;22.61;100.00;101326.29;1660368;86;20964;-66
2021/11/05 09:52:20;;;;;;;28.10;17.17;;;;;;;22.76;100.00;101332.42;1661143;86;21086;-72
2021/11/05 09:54:49;;;;;;;23.63;16.60;;;;;;;23.25;96.15;101330.11;1631271;85;21108;-68
2021/11/05 09:57:16;;;;;;;26.50;18.03;;;;;;;22.34;100.00;101332.14;1705422;82;21055;-65
2021/11/05 09:59:43;;;;;;;22.40;18.27;;;;;;;22.10;100.00;101330.03;1674472;84;21172;-68
2021/11/05 10:02:14;;;;;;;23.73;17.93;;;;;;;22.20;100.00;101329.48;1660979;85;21339;-65
2021/11/05 10:04:42;;;;;;;24.43;18.00;;;;;;;22.28;100.00;101334.95;1631680;86;20964;-67
2021/11/05 10:07:10;;;;;;;26.33;19.17;;;;;;;22.46;100.00;101331.31;1632610;87;21138;-66
2021/11/05 10:09:45;;;;;;;27.20;19.23;;;;;;;22.54;100.00;101337.08;1659311;84;21137;-73
2021/11/05 10:12:20;;;;;;;29.83;19.60;;;;;;;22.20;100.00;101337.95;1657609;84;22414;-65
2021/11/05 10:14:57;;;;;;;23.93;18.73;;;;;;;22.87;98.80;101340.86;1636774;86;21126;-70
2021/11/05 10:17:24;;;;;;;30.90;20.27;;;;;;;22.97;96.53;101346.41;1659752;86;21126;-74
2021/11/05 10:20:01;;;;;;;24.93;19.63;;;;;;;23.04;95.79;101341.75;1637179;86;21193;-65
2021/11/05 10:22:52;;;;;;;26.33;17.77;;;;;;;23.06;93.98;101344.95;1656034;84;21594;-65
2021/11/05 10:25:24;;;;;;;23.45;17.60;;;;;;;23.03;93.05;101340.64;1634504;86;21191;-68
2021/11/05 10:28:11;;;;;;;27.37;19.47;;;;;;;23.21;92.70;101344.94;1660178;86;20991;-74
2021/11/05 10:30:46;;;;;;;28.77;18.67;;;;;;;23.06;91.92;101347.62;1659550;86;21608;-73
2021/11/05 10:33:16;;;;;;;26.70;19.60;;;;;;;22.73;96.62;101339.53;1643660;86;20955;-65
2021/11/05 10:35:46;;;;;;;25.97;18.40;;;;;;;22.95;94.52;101341.03;1695410;82;21032;-66
2021/11/05 10:38:13;;;;;;;27.67;19.70;;;;;;;22.96;94.39;101335.49;1700537;82;21209;-66
2021/11/05 10:40:48;;;;;;;31.03;22.37;;;;;;;23.06;94.04;101330.33;1660188;86;21458;-68
2021/11/05 10:43:20;;;;;;;28.30;21.10;;;;;;;23.33;91.44;101325.72;1630725;87;21024;-72
2021/11/05 10:45:47;;;;;;;31.67;20.37;;;;;;;23.80;85.83;101328.06;1644738;82;21017;-66
2021/11/05 10:48:16;;;;;;;37.47;22.17;;;;;;;24.02;82.64;101326.78;1661889;84;21058;-75
2021/11/05 10:50:57;;;;;;;28.33;20.83;;;;;;;24.19;79.24;101324.84;1660534;86;21129;-68
2021/11/05 10:53:33;;;;;;;37.60;24.20;;;;;;;24.22;78.67;101325.69;1637526;86;21106;-68
2021/11/05 10:56:03;;;;;;;41.50;26.00;;;;;;;23.78;82.14;101315.52;1659626;86;21444;-69
2021/11/05 10:58:42;;;;;;;39.67;25.32;;;;;;;23.58;84.03;101313.87;1645250;86;20998;-67
2021/11/05 11:01:12;;;;;;;41.53;25.67;;;;;;;23.70;83.38;101313.27;1697951;82;21108;-68
2021/11/05 11:03:49;;;;;;;38.20;24.15;;;;;;;23.83;82.64;101308.95;1693041;82;21152;-71
2021/11/05 11:06:23;;;;;;;35.60;24.93;;;;;;;23.94;81.92;101308.53;1694577;83;21148;-72
2021/11/05 11:08:54;;;;;;;36.63;25.00;;;;;;;23.74;82.18;101309.87;1658886;84;21694;-68